sensor_id;sensor_type;location;lat;lon;timestamp;temperature;humidity
64858;SHT30;51335;51.148;6.950;2023-05-07T00:00:18;13.63;99.99
64858;SHT30;51335;51.148;6.950;2023-05-07T00:00:48;13.66;99.99
64858;SHT30;51335;51.148;6.950;2023-05-07T00:01:18;13.64;99.99
64858;SHT30;51335;51.148;6.950;2023-05-07T00:01:49;13.63;99.99
64858;SHT30;51335;51.148;6.950;2023-05-07T00:02:19;13.61;99.99
64858;SHT30;51335;51.148;6.950;2023-05-07T00:02:49;13.64;99.99
64858;SHT30;51335;51.148;6.950;2023-05-07T00:03:19;13.61;99.99
64858;SHT30;51335;51.148;6.950;2023-05-07T00:03:50;13.60;99.99
64858;SHT30;51335;51.148;6.950;2023-05-07T00:04:20;13.63;99.99
64858;SHT30;51335;51.148;6.950;2023-05-07T00:04:50;13.60;99.99
64858;SHT30;51335;51.148;6.950;2023-05-07T00:05:20;13.64;99.99
64858;SHT30;51335;51.148;6.950;2023-05-07T00:05:51;13.60;99.99
64858;SHT30;51335;51.148;6.950;2023-05-07T00:06:21;13.63;99.99
64858;SHT30;51335;51.148;6.950;2023-05-07T00:06:51;13.64;99.99
64858;SHT30;51335;51.148;6.950;2023-05-07T00:07:22;13.63;99.99
64858;SHT30;51335;51.148;6.950;2023-05-07T00:07:52;13.61;99.99
64858;SHT30;51335;51.148;6.950;2023-05-07T00:08:22;13.60;99.99
64858;SHT30;51335;51.148;6.950;2023-05-07T00:08:52;13.60;99.99
64858;SHT30;51335;51.148;6.950;2023-05-07T00:09:23;13.64;99.99
64858;SHT30;51335;51.148;6.950;2023-05-07T00:09:53;13.61;99.99
64858;SHT30;51335;51.148;6.950;2023-05-07T00:10:23;13.63;99.99
64858;SHT30;51335;51.148;6.950;2023-05-07T00:10:54;13.61;99.99
64858;SHT30;51335;51.148;6.950;2023-05-07T00:11:24;13.61;99.99
64858;SHT30;51335;51.148;6.950;2023-05-07T00:11:54;13.63;99.99
64858;SHT30;51335;51.148;6.950;2023-05-07T00:12:25;13.63;99.99
64858;SHT30;51335;51.148;6.950;2023-05-07T00:12:55;13.61;99.99
64858;SHT30;51335;51.148;6.950;2023-05-07T00:13:25;13.64;99.99
64858;SHT30;51335;51.148;6.950;2023-05-07T00:13:55;13.66;99.99
64858;SHT30;51335;51.148;6.950;2023-05-07T00:14:26;13.66;99.99
64858;SHT30;51335;51.148;6.950;2023-05-07T00:14:56;13.63;99.99
64858;SHT30;51335;51.148;6.950;2023-05-07T00:15:26;13.66;99.99
64858;SHT30;51335;51.148;6.950;2023-05-07T00:15:56;13.66;99.99
64858;SHT30;51335;51.148;6.950;2023-05-07T00:16:27;13.64;99.99
64858;SHT30;51335;51.148;6.950;2023-05-07T00:16:57;13.67;99.99
64858;SHT30;51335;51.148;6.950;2023-05-07T00:17:29;13.66;99.99
64858;SHT30;51335;51.148;6.950;2023-05-07T00:17:59;13.66;99.99
64858;SHT30;51335;51.148;6.950;2023-05-07T00:18:29;13.64;99.99
64858;SHT30;51335;51.148;6.950;2023-05-07T00:19:00;13.66;99.99
64858;SHT30;51335;51.148;6.950;2023-05-07T00:19:30;13.66;99.99
64858;SHT30;51335;51.148;6.950;2023-05-07T00:20:01;13.66;99.99
64858;SHT30;51335;51.148;6.950;2023-05-07T00:20:31;13.67;99.99
64858;SHT30;51335;51.148;6.950;2023-05-07T00:21:01;13.67;99.99
64858;SHT30;51335;51.148;6.950;2023-05-07T00:21:32;13.67;99.99
64858;SHT30;51335;51.148;6.950;2023-05-07T00:22:02;13.66;99.99
64858;SHT30;51335;51.148;6.950;2023-05-07T00:22:32;13.63;99.99
64858;SHT30;51335;51.148;6.950;2023-05-07T00:23:02;13.61;99.99
64858;SHT30;51335;51.148;6.950;2023-05-07T00:23:33;13.66;99.99
64858;SHT30;51335;51.148;6.950;2023-05-07T00:24:03;13.67;99.99
64858;SHT30;51335;51.148;6.950;2023-05-07T00:24:34;13.67;99.99
64858;SHT30;51335;51.148;6.950;2023-05-07T00:25:04;13.67;99.99
64858;SHT30;51335;51.148;6.950;2023-05-07T00:25:35;13.67;99.99
64858;SHT30;51335;51.148;6.950;2023-05-07T00:26:05;13.67;99.99
64858;SHT30;51335;51.148;6.950;2023-05-07T00:26:35;13.68;99.99
64858;SHT30;51335;51.148;6.950;2023-05-07T00:27:06;13.71;99.99
64858;SHT30;51335;51.148;6.950;2023-05-07T00:27:36;13.68;99.99
64858;SHT30;51335;51.148;6.950;2023-05-07T00:28:06;13.73;99.99
64858;SHT30;51335;51.148;6.950;2023-05-07T00:28:36;13.73;99.99
64858;SHT30;51335;51.148;6.950;2023-05-07T00:29:07;13.71;99.99
64858;SHT30;51335;51.148;6.950;2023-05-07T00:29:37;13.68;99.99
64858;SHT30;51335;51.148;6.950;2023-05-07T00:30:08;13.73;99.99
64858;SHT30;51335;51.148;6.950;2023-05-07T00:30:38;13.74;99.99
64858;SHT30;51335;51.148;6.950;2023-05-07T00:31:08;13.75;99.99
64858;SHT30;51335;51.148;6.950;2023-05-07T00:31:39;13.82;99.99
64858;SHT30;51335;51.148;6.950;2023-05-07T00:32:09;13.85;99.99
64858;SHT30;51335;51.148;6.950;2023-05-07T00:32:39;13.84;99.99
64858;SHT30;51335;51.148;6.950;2023-05-07T00:33:10;13.88;99.99
64858;SHT30;51335;51.148;6.950;2023-05-07T00:33:40;13.87;99.99
64858;SHT30;51335;51.148;6.950;2023-05-07T00:34:10;13.84;99.99
64858;SHT30;51335;51.148;6.950;2023-05-07T00:34:40;13.81;99.99
64858;SHT30;51335;51.148;6.950;2023-05-07T00:35:11;13.81;99.99
64858;SHT30;51335;51.148;6.950;2023-05-07T00:35:42;13.81;99.99
64858;SHT30;51335;51.148;6.950;2023-05-07T00:36:12;13.79;99.99
64858;SHT30;51335;51.148;6.950;2023-05-07T00:36:43;13.75;99.99
64858;SHT30;51335;51.148;6.950;2023-05-07T00:37:13;13.74;99.99
64858;SHT30;51335;51.148;6.950;2023-05-07T00:37:43;13.74;99.99
64858;SHT30;51335;51.148;6.950;2023-05-07T00:38:14;13.77;99.99
64858;SHT30;51335;51.148;6.950;2023-05-07T00:38:44;13.74;99.99
64858;SHT30;51335;51.148;6.950;2023-05-07T00:39:14;13.74;99.99
64858;SHT30;51335;51.148;6.950;2023-05-07T00:39:45;13.73;99.99
64858;SHT30;51335;51.148;6.950;2023-05-07T00:40:15;13.74;99.99
64858;SHT30;51335;51.148;6.950;2023-05-07T00:40:46;13.73;99.99
64858;SHT30;51335;51.148;6.950;2023-05-07T00:41:16;13.73;99.99
64858;SHT30;51335;51.148;6.950;2023-05-07T00:41:46;13.71;99.99
64858;SHT30;51335;51.148;6.950;2023-05-07T00:42:16;13.70;99.99
64858;SHT30;51335;51.148;6.950;2023-05-07T00:42:47;13.70;99.99
64858;SHT30;51335;51.148;6.950;2023-05-07T00:43:17;13.66;99.99
64858;SHT30;51335;51.148;6.950;2023-05-07T00:43:47;13.64;99.99
64858;SHT30;51335;51.148;6.950;2023-05-07T00:44:18;13.63;99.99
64858;SHT30;51335;51.148;6.950;2023-05-07T00:44:48;13.60;99.99
64858;SHT30;51335;51.148;6.950;2023-05-07T00:45:18;13.63;99.99
64858;SHT30;51335;51.148;6.950;2023-05-07T00:45:49;13.57;99.99
64858;SHT30;51335;51.148;6.950;2023-05-07T00:46:20;13.57;99.99
64858;SHT30;51335;51.148;6.950;2023-05-07T00:46:51;13.57;99.99
64858;SHT30;51335;51.148;6.950;2023-05-07T00:47:21;13.51;99.99
64858;SHT30;51335;51.148;6.950;2023-05-07T00:47:54;13.53;99.99
64858;SHT30;51335;51.148;6.950;2023-05-07T00:48:25;13.53;99.99
64858;SHT30;51335;51.148;6.950;2023-05-07T00:48:56;13.53;99.99
64858;SHT30;51335;51.148;6.950;2023-05-07T00:49:37;13.49;99.99
64858;SHT30;51335;51.148;6.950;2023-05-07T00:50:08;13.47;99.99
64858;SHT30;51335;51.148;6.950;2023-05-07T00:50:39;13.49;99.99
64858;SHT30;51335;51.148;6.950;2023-05-07T00:51:10;13.49;99.99
64858;SHT30;51335;51.148;6.950;2023-05-07T00:51:40;13.49;99.99
64858;SHT30;51335;51.148;6.950;2023-05-07T00:52:13;13.49;99.99
64858;SHT30;51335;51.148;6.950;2023-05-07T00:52:44;13.46;99.99
64858;SHT30;51335;51.148;6.950;2023-05-07T00:53:14;13.44;99.99
64858;SHT30;51335;51.148;6.950;2023-05-07T00:53:45;13.46;99.99
64858;SHT30;51335;51.148;6.950;2023-05-07T00:54:16;13.43;99.99
64858;SHT30;51335;51.148;6.950;2023-05-07T00:54:47;13.44;99.99
64858;SHT30;51335;51.148;6.950;2023-05-07T00:55:17;13.44;99.99
64858;SHT30;51335;51.148;6.950;2023-05-07T00:55:48;13.42;99.99
64858;SHT30;51335;51.148;6.950;2023-05-07T00:56:20;13.44;99.99
64858;SHT30;51335;51.148;6.950;2023-05-07T00:56:50;13.43;99.99
64858;SHT30;51335;51.148;6.950;2023-05-07T00:57:21;13.40;99.99
64858;SHT30;51335;51.148;6.950;2023-05-07T00:57:51;13.39;99.99
64858;SHT30;51335;51.148;6.950;2023-05-07T00:58:22;13.40;99.99
64858;SHT30;51335;51.148;6.950;2023-05-07T00:58:53;13.40;99.99
64858;SHT30;51335;51.148;6.950;2023-05-07T00:59:23;13.39;99.99
64858;SHT30;51335;51.148;6.950;2023-05-07T00:59:54;13.39;99.99
64858;SHT30;51335;51.148;6.950;2023-05-07T01:00:24;13.40;99.99
64858;SHT30;51335;51.148;6.950;2023-05-07T01:00:54;13.39;99.99
64858;SHT30;51335;51.148;6.950;2023-05-07T01:01:25;13.36;99.99
64858;SHT30;51335;51.148;6.950;2023-05-07T01:01:55;13.40;99.99
64858;SHT30;51335;51.148;6.950;2023-05-07T01:02:25;13.40;99.99
64858;SHT30;51335;51.148;6.950;2023-05-07T01:02:56;13.37;99.99
64858;SHT30;51335;51.148;6.950;2023-05-07T01:03:26;13.37;99.99
64858;SHT30;51335;51.148;6.950;2023-05-07T01:03:56;13.39;99.99
64858;SHT30;51335;51.148;6.950;2023-05-07T01:04:26;13.36;99.99
64858;SHT30;51335;51.148;6.950;2023-05-07T01:04:57;13.37;99.99
64858;SHT30;51335;51.148;6.950;2023-05-07T01:05:28;13.36;99.99
64858;SHT30;51335;51.148;6.950;2023-05-07T01:05:59;13.36;99.99
64858;SHT30;51335;51.148;6.950;2023-05-07T01:06:32;13.36;99.99
64858;SHT30;51335;51.148;6.950;2023-05-07T01:07:03;13.39;99.99
64858;SHT30;51335;51.148;6.950;2023-05-07T01:07:34;13.39;99.99
64858;SHT30;51335;51.148;6.950;2023-05-07T01:08:05;13.39;99.99
64858;SHT30;51335;51.148;6.950;2023-05-07T01:08:36;13.39;99.99
64858;SHT30;51335;51.148;6.950;2023-05-07T01:09:06;13.39;99.99
64858;SHT30;51335;51.148;6.950;2023-05-07T01:09:37;13.40;99.99
64858;SHT30;51335;51.148;6.950;2023-05-07T01:10:08;13.39;99.99
64858;SHT30;51335;51.148;6.950;2023-05-07T01:10:39;13.40;99.99
64858;SHT30;51335;51.148;6.950;2023-05-07T01:11:10;13.40;99.99
64858;SHT30;51335;51.148;6.950;2023-05-07T01:11:42;13.35;99.99
64858;SHT30;51335;51.148;6.950;2023-05-07T01:12:12;13.35;99.99
64858;SHT30;51335;51.148;6.950;2023-05-07T01:12:43;13.35;99.99
64858;SHT30;51335;51.148;6.950;2023-05-07T01:13:15;13.36;99.99
64858;SHT30;51335;51.148;6.950;2023-05-07T01:13:46;13.33;99.99
64858;SHT30;51335;51.148;6.950;2023-05-07T01:14:17;13.35;99.99
64858;SHT30;51335;51.148;6.950;2023-05-07T01:14:48;13.33;99.99
64858;SHT30;51335;51.148;6.950;2023-05-07T01:15:18;13.35;99.99
64858;SHT30;51335;51.148;6.950;2023-05-07T01:15:49;13.32;99.99
64858;SHT30;51335;51.148;6.950;2023-05-07T01:16:19;13.30;99.99
64858;SHT30;51335;51.148;6.950;2023-05-07T01:16:50;13.33;99.99
64858;SHT30;51335;51.148;6.950;2023-05-07T01:17:20;13.32;99.99
64858;SHT30;51335;51.148;6.950;2023-05-07T01:17:50;13.29;99.99
64858;SHT30;51335;51.148;6.950;2023-05-07T01:18:21;13.32;99.99
64858;SHT30;51335;51.148;6.950;2023-05-07T01:18:51;13.30;99.99
64858;SHT30;51335;51.148;6.950;2023-05-07T01:19:22;13.30;99.99
64858;SHT30;51335;51.148;6.950;2023-05-07T01:19:52;13.29;99.99
64858;SHT30;51335;51.148;6.950;2023-05-07T01:20:22;13.27;99.99
64858;SHT30;51335;51.148;6.950;2023-05-07T01:20:54;13.27;99.99
64858;SHT30;51335;51.148;6.950;2023-05-07T01:21:26;13.26;99.99
64858;SHT30;51335;51.148;6.950;2023-05-07T01:22:02;13.27;99.99
64858;SHT30;51335;51.148;6.950;2023-05-07T01:22:37;13.26;99.99
64858;SHT30;51335;51.148;6.950;2023-05-07T01:23:07;13.27;99.99
64858;SHT30;51335;51.148;6.950;2023-05-07T01:23:39;13.30;99.99
64858;SHT30;51335;51.148;6.950;2023-05-07T01:24:09;13.29;99.99
64858;SHT30;51335;51.148;6.950;2023-05-07T01:24:41;13.29;99.99
64858;SHT30;51335;51.148;6.950;2023-05-07T01:25:11;13.29;99.99
64858;SHT30;51335;51.148;6.950;2023-05-07T01:25:42;13.29;99.99
64858;SHT30;51335;51.148;6.950;2023-05-07T01:26:12;13.26;99.99
64858;SHT30;51335;51.148;6.950;2023-05-07T01:26:43;13.23;99.99
64858;SHT30;51335;51.148;6.950;2023-05-07T01:27:14;13.24;99.99
64858;SHT30;51335;51.148;6.950;2023-05-07T01:27:44;13.26;99.99
64858;SHT30;51335;51.148;6.950;2023-05-07T01:28:14;13.24;99.99
64858;SHT30;51335;51.148;6.950;2023-05-07T01:28:45;13.24;99.99
64858;SHT30;51335;51.148;6.950;2023-05-07T01:29:15;13.26;99.99
64858;SHT30;51335;51.148;6.950;2023-05-07T01:29:46;13.29;99.99
64858;SHT30;51335;51.148;6.950;2023-05-07T01:30:18;13.29;99.99
64858;SHT30;51335;51.148;6.950;2023-05-07T01:30:55;13.36;99.99
64858;SHT30;51335;51.148;6.950;2023-05-07T01:31:26;13.36;99.99
64858;SHT30;51335;51.148;6.950;2023-05-07T01:31:58;13.36;99.99
64858;SHT30;51335;51.148;6.950;2023-05-07T01:32:35;13.40;99.99
64858;SHT30;51335;51.148;6.950;2023-05-07T01:33:11;13.42;99.99
64858;SHT30;51335;51.148;6.950;2023-05-07T01:33:44;13.42;99.99
64858;SHT30;51335;51.148;6.950;2023-05-07T01:34:17;13.42;99.99
64858;SHT30;51335;51.148;6.950;2023-05-07T01:34:48;13.43;99.99
64858;SHT30;51335;51.148;6.950;2023-05-07T01:35:26;13.44;99.99
64858;SHT30;51335;51.148;6.950;2023-05-07T01:35:57;13.46;99.99
64858;SHT30;51335;51.148;6.950;2023-05-07T01:36:29;13.44;99.99
64858;SHT30;51335;51.148;6.950;2023-05-07T01:37:00;13.46;99.99
64858;SHT30;51335;51.148;6.950;2023-05-07T01:37:31;13.49;99.99
64858;SHT30;51335;51.148;6.950;2023-05-07T01:38:03;13.50;99.99
64858;SHT30;51335;51.148;6.950;2023-05-07T01:38:34;13.47;99.99
64858;SHT30;51335;51.148;6.950;2023-05-07T01:39:06;13.50;99.99
64858;SHT30;51335;51.148;6.950;2023-05-07T01:39:39;13.50;99.99
64858;SHT30;51335;51.148;6.950;2023-05-07T01:40:10;13.53;99.99
64858;SHT30;51335;51.148;6.950;2023-05-07T01:40:40;13.54;99.99
64858;SHT30;51335;51.148;6.950;2023-05-07T01:41:12;13.54;99.99
64858;SHT30;51335;51.148;6.950;2023-05-07T01:41:43;13.57;99.99
64858;SHT30;51335;51.148;6.950;2023-05-07T01:42:13;13.58;99.99
64858;SHT30;51335;51.148;6.950;2023-05-07T01:42:43;13.56;99.99
64858;SHT30;51335;51.148;6.950;2023-05-07T01:43:14;13.54;99.99
64858;SHT30;51335;51.148;6.950;2023-05-07T01:43:45;13.57;99.99
64858;SHT30;51335;51.148;6.950;2023-05-07T01:44:16;13.57;99.99
64858;SHT30;51335;51.148;6.950;2023-05-07T01:44:48;13.57;99.99
64858;SHT30;51335;51.148;6.950;2023-05-07T01:45:18;13.58;99.99
64858;SHT30;51335;51.148;6.950;2023-05-07T01:45:49;13.61;99.99
64858;SHT30;51335;51.148;6.950;2023-05-07T01:46:20;13.57;99.99
64858;SHT30;51335;51.148;6.950;2023-05-07T01:46:50;13.50;99.99
64858;SHT30;51335;51.148;6.950;2023-05-07T01:47:21;13.49;99.99
64858;SHT30;51335;51.148;6.950;2023-05-07T01:47:52;13.43;99.99
64858;SHT30;51335;51.148;6.950;2023-05-07T01:48:24;13.44;99.99
64858;SHT30;51335;51.148;6.950;2023-05-07T01:48:54;13.44;99.99
64858;SHT30;51335;51.148;6.950;2023-05-07T01:49:25;13.39;99.99
64858;SHT30;51335;51.148;6.950;2023-05-07T01:49:55;13.36;99.99
64858;SHT30;51335;51.148;6.950;2023-05-07T01:50:27;13.33;99.99
64858;SHT30;51335;51.148;6.950;2023-05-07T01:50:57;13.30;99.99
64858;SHT30;51335;51.148;6.950;2023-05-07T01:51:28;13.32;99.99
64858;SHT30;51335;51.148;6.950;2023-05-07T01:51:58;13.30;99.99
64858;SHT30;51335;51.148;6.950;2023-05-07T01:52:29;13.35;99.99
64858;SHT30;51335;51.148;6.950;2023-05-07T01:53:01;13.33;99.99
64858;SHT30;51335;51.148;6.950;2023-05-07T01:53:38;13.30;99.99
64858;SHT30;51335;51.148;6.950;2023-05-07T01:54:09;13.29;99.99
64858;SHT30;51335;51.148;6.950;2023-05-07T01:54:39;13.27;99.99
64858;SHT30;51335;51.148;6.950;2023-05-07T01:55:10;13.26;99.99
64858;SHT30;51335;51.148;6.950;2023-05-07T01:55:40;13.23;99.99
64858;SHT30;51335;51.148;6.950;2023-05-07T01:56:10;13.20;99.99
64858;SHT30;51335;51.148;6.950;2023-05-07T01:56:40;13.19;99.99
64858;SHT30;51335;51.148;6.950;2023-05-07T01:57:11;13.16;99.99
64858;SHT30;51335;51.148;6.950;2023-05-07T01:57:41;13.13;99.99
64858;SHT30;51335;51.148;6.950;2023-05-07T01:58:11;13.10;99.99
64858;SHT30;51335;51.148;6.950;2023-05-07T01:58:42;13.09;99.99
64858;SHT30;51335;51.148;6.950;2023-05-07T01:59:12;13.09;99.99
64858;SHT30;51335;51.148;6.950;2023-05-07T01:59:42;13.05;99.99
64858;SHT30;51335;51.148;6.950;2023-05-07T02:00:13;13.05;99.99
64858;SHT30;51335;51.148;6.950;2023-05-07T02:00:43;12.99;99.99
64858;SHT30;51335;51.148;6.950;2023-05-07T02:01:14;12.99;99.99
64858;SHT30;51335;51.148;6.950;2023-05-07T02:01:44;13.02;99.99
64858;SHT30;51335;51.148;6.950;2023-05-07T02:02:14;12.98;99.99
64858;SHT30;51335;51.148;6.950;2023-05-07T02:02:45;12.99;99.99
64858;SHT30;51335;51.148;6.950;2023-05-07T02:03:15;13.00;99.99
64858;SHT30;51335;51.148;6.950;2023-05-07T02:03:45;13.00;99.99
64858;SHT30;51335;51.148;6.950;2023-05-07T02:04:15;12.98;99.99
64858;SHT30;51335;51.148;6.950;2023-05-07T02:04:46;12.98;99.99
64858;SHT30;51335;51.148;6.950;2023-05-07T02:05:16;12.96;99.99
64858;SHT30;51335;51.148;6.950;2023-05-07T02:05:46;12.96;99.99
64858;SHT30;51335;51.148;6.950;2023-05-07T02:06:16;12.96;99.99
64858;SHT30;51335;51.148;6.950;2023-05-07T02:06:47;12.92;99.99
64858;SHT30;51335;51.148;6.950;2023-05-07T02:07:17;12.93;99.99
64858;SHT30;51335;51.148;6.950;2023-05-07T02:07:47;12.91;99.99
64858;SHT30;51335;51.148;6.950;2023-05-07T02:08:17;12.89;99.99
64858;SHT30;51335;51.148;6.950;2023-05-07T02:08:48;12.87;99.99
64858;SHT30;51335;51.148;6.950;2023-05-07T02:09:18;12.87;99.99
64858;SHT30;51335;51.148;6.950;2023-05-07T02:09:48;12.87;99.99
64858;SHT30;51335;51.148;6.950;2023-05-07T02:10:19;12.85;99.99
64858;SHT30;51335;51.148;6.950;2023-05-07T02:10:49;12.87;99.99
64858;SHT30;51335;51.148;6.950;2023-05-07T02:11:19;12.84;99.99
64858;SHT30;51335;51.148;6.950;2023-05-07T02:11:50;12.82;99.99
64858;SHT30;51335;51.148;6.950;2023-05-07T02:12:20;12.79;99.99
64858;SHT30;51335;51.148;6.950;2023-05-07T02:12:50;12.82;99.99
64858;SHT30;51335;51.148;6.950;2023-05-07T02:13:20;12.82;99.99
64858;SHT30;51335;51.148;6.950;2023-05-07T02:13:51;12.81;99.99
64858;SHT30;51335;51.148;6.950;2023-05-07T02:14:21;12.84;99.99
64858;SHT30;51335;51.148;6.950;2023-05-07T02:14:51;12.87;99.99
64858;SHT30;51335;51.148;6.950;2023-05-07T02:15:21;12.87;99.99
64858;SHT30;51335;51.148;6.950;2023-05-07T02:15:52;12.87;99.99
64858;SHT30;51335;51.148;6.950;2023-05-07T02:16:22;12.85;99.99
64858;SHT30;51335;51.148;6.950;2023-05-07T02:16:52;12.87;99.99
64858;SHT30;51335;51.148;6.950;2023-05-07T02:17:23;12.87;99.99
64858;SHT30;51335;51.148;6.950;2023-05-07T02:18:07;12.82;99.99
64858;SHT30;51335;51.148;6.950;2023-05-07T02:18:37;12.81;99.99
64858;SHT30;51335;51.148;6.950;2023-05-07T02:19:08;12.87;99.99
64858;SHT30;51335;51.148;6.950;2023-05-07T02:19:38;12.84;99.99
64858;SHT30;51335;51.148;6.950;2023-05-07T02:20:08;12.84;99.99
64858;SHT30;51335;51.148;6.950;2023-05-07T02:20:39;12.81;99.99
64858;SHT30;51335;51.148;6.950;2023-05-07T02:21:09;12.81;99.99
64858;SHT30;51335;51.148;6.950;2023-05-07T02:21:39;12.82;99.99
64858;SHT30;51335;51.148;6.950;2023-05-07T02:22:10;12.81;99.99
64858;SHT30;51335;51.148;6.950;2023-05-07T02:22:40;12.82;99.99
64858;SHT30;51335;51.148;6.950;2023-05-07T02:23:10;12.85;99.99
64858;SHT30;51335;51.148;6.950;2023-05-07T02:23:41;12.85;99.99
64858;SHT30;51335;51.148;6.950;2023-05-07T02:24:11;12.82;99.99
64858;SHT30;51335;51.148;6.950;2023-05-07T02:24:41;12.82;99.99
64858;SHT30;51335;51.148;6.950;2023-05-07T02:25:11;12.81;99.99
64858;SHT30;51335;51.148;6.950;2023-05-07T02:25:42;12.84;99.99
64858;SHT30;51335;51.148;6.950;2023-05-07T02:26:12;12.82;99.99
64858;SHT30;51335;51.148;6.950;2023-05-07T02:26:42;12.82;99.99
64858;SHT30;51335;51.148;6.950;2023-05-07T02:27:13;12.77;99.99
64858;SHT30;51335;51.148;6.950;2023-05-07T02:27:43;12.77;99.99
64858;SHT30;51335;51.148;6.950;2023-05-07T02:28:13;12.78;99.99
64858;SHT30;51335;51.148;6.950;2023-05-07T02:28:43;12.79;99.99
64858;SHT30;51335;51.148;6.950;2023-05-07T02:29:14;12.79;99.99
64858;SHT30;51335;51.148;6.950;2023-05-07T02:29:45;12.75;99.99
64858;SHT30;51335;51.148;6.950;2023-05-07T02:30:16;12.74;99.99
64858;SHT30;51335;51.148;6.950;2023-05-07T02:30:46;12.72;99.99
64858;SHT30;51335;51.148;6.950;2023-05-07T02:31:16;12.74;99.99
64858;SHT30;51335;51.148;6.950;2023-05-07T02:31:46;12.72;99.99
64858;SHT30;51335;51.148;6.950;2023-05-07T02:32:17;12.72;99.99
64858;SHT30;51335;51.148;6.950;2023-05-07T02:32:47;12.71;99.99
64858;SHT30;51335;51.148;6.950;2023-05-07T02:33:17;12.71;99.99
64858;SHT30;51335;51.148;6.950;2023-05-07T02:33:47;12.72;99.99
64858;SHT30;51335;51.148;6.950;2023-05-07T02:34:18;12.74;99.99
64858;SHT30;51335;51.148;6.950;2023-05-07T02:34:50;12.74;99.99
64858;SHT30;51335;51.148;6.950;2023-05-07T02:35:20;12.75;99.99
64858;SHT30;51335;51.148;6.950;2023-05-07T02:35:50;12.74;99.99
64858;SHT30;51335;51.148;6.950;2023-05-07T02:36:21;12.75;99.99
64858;SHT30;51335;51.148;6.950;2023-05-07T02:36:51;12.72;99.99
64858;SHT30;51335;51.148;6.950;2023-05-07T02:37:21;12.72;99.99
64858;SHT30;51335;51.148;6.950;2023-05-07T02:37:52;12.68;99.99
64858;SHT30;51335;51.148;6.950;2023-05-07T02:38:22;12.69;99.99
64858;SHT30;51335;51.148;6.950;2023-05-07T02:38:53;12.71;99.99
64858;SHT30;51335;51.148;6.950;2023-05-07T02:39:23;12.71;99.99
64858;SHT30;51335;51.148;6.950;2023-05-07T02:39:53;12.67;99.99
64858;SHT30;51335;51.148;6.950;2023-05-07T02:40:24;12.65;99.99
64858;SHT30;51335;51.148;6.950;2023-05-07T02:40:54;12.64;99.99
64858;SHT30;51335;51.148;6.950;2023-05-07T02:41:24;12.62;99.99
64858;SHT30;51335;51.148;6.950;2023-05-07T02:41:54;12.60;99.99
64858;SHT30;51335;51.148;6.950;2023-05-07T02:42:25;12.60;99.99
64858;SHT30;51335;51.148;6.950;2023-05-07T02:42:55;12.58;99.99
64858;SHT30;51335;51.148;6.950;2023-05-07T02:43:25;12.57;99.99
64858;SHT30;51335;51.148;6.950;2023-05-07T02:43:55;12.57;99.99
64858;SHT30;51335;51.148;6.950;2023-05-07T02:44:26;12.55;99.99
64858;SHT30;51335;51.148;6.950;2023-05-07T02:44:56;12.54;99.99
64858;SHT30;51335;51.148;6.950;2023-05-07T02:45:26;12.52;99.99
64858;SHT30;51335;51.148;6.950;2023-05-07T02:46:01;12.52;99.99
64858;SHT30;51335;51.148;6.950;2023-05-07T02:46:31;12.48;99.99
64858;SHT30;51335;51.148;6.950;2023-05-07T02:47:01;12.50;99.99
64858;SHT30;51335;51.148;6.950;2023-05-07T02:47:32;12.45;99.99
64858;SHT30;51335;51.148;6.950;2023-05-07T02:48:02;12.47;99.99
64858;SHT30;51335;51.148;6.950;2023-05-07T02:48:33;12.45;99.99
64858;SHT30;51335;51.148;6.950;2023-05-07T02:49:03;12.45;99.99
64858;SHT30;51335;51.148;6.950;2023-05-07T02:49:33;12.42;99.99
64858;SHT30;51335;51.148;6.950;2023-05-07T02:50:04;12.44;99.99
64858;SHT30;51335;51.148;6.950;2023-05-07T02:50:34;12.44;99.99
64858;SHT30;51335;51.148;6.950;2023-05-07T02:51:05;12.42;99.99
64858;SHT30;51335;51.148;6.950;2023-05-07T02:51:35;12.40;99.99
64858;SHT30;51335;51.148;6.950;2023-05-07T02:52:05;12.37;99.99
64858;SHT30;51335;51.148;6.950;2023-05-07T02:52:36;12.34;99.99
64858;SHT30;51335;51.148;6.950;2023-05-07T02:53:06;12.33;99.99
64858;SHT30;51335;51.148;6.950;2023-05-07T02:53:36;12.33;99.99
64858;SHT30;51335;51.148;6.950;2023-05-07T02:54:07;12.30;99.99
64858;SHT30;51335;51.148;6.950;2023-05-07T02:54:37;12.29;99.99
64858;SHT30;51335;51.148;6.950;2023-05-07T02:55:07;12.29;99.99
64858;SHT30;51335;51.148;6.950;2023-05-07T02:55:38;12.24;99.99
64858;SHT30;51335;51.148;6.950;2023-05-07T02:56:08;12.27;99.99
64858;SHT30;51335;51.148;6.950;2023-05-07T02:56:38;12.24;99.99
64858;SHT30;51335;51.148;6.950;2023-05-07T02:57:08;12.22;99.99
64858;SHT30;51335;51.148;6.950;2023-05-07T02:57:39;12.20;99.99
64858;SHT30;51335;51.148;6.950;2023-05-07T02:58:09;12.20;99.99
64858;SHT30;51335;51.148;6.950;2023-05-07T02:58:39;12.20;99.99
64858;SHT30;51335;51.148;6.950;2023-05-07T02:59:10;12.16;99.99
64858;SHT30;51335;51.148;6.950;2023-05-07T02:59:41;12.16;99.99
64858;SHT30;51335;51.148;6.950;2023-05-07T03:00:13;12.14;99.99
64858;SHT30;51335;51.148;6.950;2023-05-07T03:00:44;12.14;99.99
64858;SHT30;51335;51.148;6.950;2023-05-07T03:01:14;12.13;99.99
64858;SHT30;51335;51.148;6.950;2023-05-07T03:01:44;12.10;99.99
64858;SHT30;51335;51.148;6.950;2023-05-07T03:02:15;12.12;99.99
64858;SHT30;51335;51.148;6.950;2023-05-07T03:02:45;12.10;99.99
64858;SHT30;51335;51.148;6.950;2023-05-07T03:03:15;12.09;99.99
64858;SHT30;51335;51.148;6.950;2023-05-07T03:03:46;12.07;99.99
64858;SHT30;51335;51.148;6.950;2023-05-07T03:04:16;12.07;99.99
64858;SHT30;51335;51.148;6.950;2023-05-07T03:04:46;12.07;99.99
64858;SHT30;51335;51.148;6.950;2023-05-07T03:05:16;12.06;99.99
64858;SHT30;51335;51.148;6.950;2023-05-07T03:05:47;12.02;99.99
64858;SHT30;51335;51.148;6.950;2023-05-07T03:06:17;12.00;99.99
64858;SHT30;51335;51.148;6.950;2023-05-07T03:06:47;12.04;99.99
64858;SHT30;51335;51.148;6.950;2023-05-07T03:07:18;12.00;99.99
64858;SHT30;51335;51.148;6.950;2023-05-07T03:07:48;11.99;99.99
64858;SHT30;51335;51.148;6.950;2023-05-07T03:08:18;12.03;99.99
64858;SHT30;51335;51.148;6.950;2023-05-07T03:08:48;12.03;99.99
64858;SHT30;51335;51.148;6.950;2023-05-07T03:09:19;12.00;99.99
64858;SHT30;51335;51.148;6.950;2023-05-07T03:09:49;11.99;99.99
64858;SHT30;51335;51.148;6.950;2023-05-07T03:10:19;11.97;99.99
64858;SHT30;51335;51.148;6.950;2023-05-07T03:10:50;11.94;99.99
64858;SHT30;51335;51.148;6.950;2023-05-07T03:11:20;11.96;99.99
64858;SHT30;51335;51.148;6.950;2023-05-07T03:11:51;11.92;99.99
64858;SHT30;51335;51.148;6.950;2023-05-07T03:12:21;11.89;99.99
64858;SHT30;51335;51.148;6.950;2023-05-07T03:12:51;11.87;99.99
64858;SHT30;51335;51.148;6.950;2023-05-07T03:13:22;11.86;99.99
64858;SHT30;51335;51.148;6.950;2023-05-07T03:13:52;11.89;99.99